Time;durP1;ratioP1;P1;durP2;ratioP2;P2;SDS_P1;SDS_P2;PMS_P1;PMS_P2;Temp;Humidity;BMP_temperature;BMP_pressure;BME280_temperature;BME280_humidity;BME280_pressure;Samples;Min_cycle;Max_cycle;Signal;HPM_P1;HPM_P2
2021/08/18 00:07:56;;;;;;;7.65;5.55;;;16.30;96.30;;;;;;6129186;23;20029;-91
2021/08/18 11:27:57;;;;;;;4.55;4.15;;;18.30;94.20;;;;;;5123564;27;20174;-90
2021/08/18 11:30:28;;;;;;;3.60;3.30;;;19.10;95.30;;;;;;5117265;28;20104;-84
2021/08/18 11:32:55;;;;;;;3.22;3.00;;;19.10;95.40;;;;;;5116711;28;20020;-85
2021/08/18 11:35:34;;;;;;;4.10;3.05;;;19.20;95.30;;;;;;5125619;28;20057;-83
2021/08/18 11:38:04;;;;;;;3.35;3.05;;;19.30;95.00;;;;;;5122314;27;20114;-85
2021/08/18 11:40:30;;;;;;;3.40;3.10;;;19.30;95.00;;;;;;5121709;28;20034;-87
2021/08/18 11:42:57;;;;;;;3.47;3.17;;;19.30;94.80;;;;;;5121521;28;20023;-86
2021/08/18 11:45:24;;;;;;;4.35;3.95;;;19.40;94.70;;;;;;5108617;28;20040;-87
2021/08/18 11:47:51;;;;;;;5.93;5.30;;;19.50;94.70;;;;;;5122814;28;20016;-86
2021/08/18 11:50:18;;;;;;;6.55;5.88;;;19.60;94.30;;;;;;5106420;28;20804;-84
2021/08/18 11:52:57;;;;;;;5.80;5.20;;;19.60;94.10;;;;;;5099514;28;20115;-94
2021/08/18 11:55:27;;;;;;;6.53;5.93;;;19.60;93.90;;;;;;5117394;28;20099;-91
2021/08/18 11:58:26;;;;;;;7.35;6.75;;;19.60;93.90;;;;;;5124954;28;20110;-86
2021/08/18 12:00:54;;;;;;;6.78;6.15;;;19.60;93.70;;;;;;5122876;28;20091;-92
2021/08/18 12:08:11;;;;;;;;;;;;;;;;;;;;;
2021/08/18 12:11:07;;;;;;;9.40;8.50;;;19.50;93.40;;;;;;5034685;28;20040;-93
2021/08/18 12:50:38;;;;;;;10.23;8.85;;;19.60;93.30;;;;;;4912904;29;20066;-91
2021/08/18 12:53:10;;;;;;;10.73;8.38;;;19.60;93.20;;;;;;4905500;29;20092;-87
2021/08/18 12:55:50;;;;;;;8.38;7.53;;;19.70;93.20;;;;;;4932651;29;20075;-85
2021/08/18 12:58:20;;;;;;;10.38;7.82;;;19.70;93.20;;;;;;4934495;29;20080;-91
2021/08/18 13:00:46;;;;;;;9.80;8.43;;;19.70;93.10;;;;;;4915502;29;20027;-87
2021/08/18 13:03:12;;;;;;;8.70;7.85;;;19.70;92.90;;;;;;4937835;29;20031;-89
2021/08/18 13:05:38;;;;;;;10.20;7.70;;;19.70;93.00;;;;;;4919724;29;20032;-86
2021/08/18 13:08:04;;;;;;;11.38;7.82;;;19.70;93.00;;;;;;4903007;29;20032;-86
2021/08/18 13:10:29;;;;;;;11.20;8.50;;;19.70;92.80;;;;;;4897826;29;20028;-86
2021/08/18 13:12:55;;;;;;;9.13;7.65;;;19.70;92.60;;;;;;4915914;29;20545;-85
2021/08/18 13:15:22;;;;;;;9.93;7.13;;;19.70;92.50;;;;;;4923789;29;20036;-84
2021/08/18 13:17:47;;;;;;;9.70;8.32;;;19.70;92.60;;;;;;4902568;29;20381;-86
2021/08/18 13:20:13;;;;;;;10.98;8.43;;;19.80;92.50;;;;;;4900394;29;20036;-85
2021/08/18 13:22:39;;;;;;;8.20;7.20;;;19.80;92.60;;;;;;4919983;29;20028;-86
2021/08/18 13:25:09;;;;;;;9.88;8.27;;;19.90;92.50;;;;;;4908031;29;20038;-87
2021/08/18 13:27:37;;;;;;;10.93;8.70;;;19.90;92.50;;;;;;4892103;29;20043;-87
2021/08/18 13:30:03;;;;;;;8.60;7.75;;;20.00;92.40;;;;;;4905461;29;20028;-88
2021/08/18 13:32:34;;;;;;;8.30;7.40;;;20.10;92.50;;;;;;4920682;29;20052;-86
2021/08/18 13:35:00;;;;;;;8.90;8.00;;;20.10;92.40;;;;;;4921265;29;20509;-86
2021/08/18 13:37:32;;;;;;;8.20;6.57;;;20.20;92.40;;;;;;4916428;29;20044;-85
2021/08/18 13:40:02;;;;;;;8.25;7.45;;;20.30;92.40;;;;;;4908695;29;20043;-86
2021/08/18 13:42:28;;;;;;;8.20;6.28;;;20.20;92.20;;;;;;4895012;29;20032;-87
2021/08/18 13:45:01;;;;;;;7.68;6.57;;;20.30;91.80;;;;;;4918954;29;20439;-86
2021/08/18 13:47:42;;;;;;;7.43;5.80;;;20.20;91.50;;;;;;4909603;29;20068;-86
2021/08/18 13:50:18;;;;;;;;;;;;;;;;;;;;;
2021/08/18 13:52:45;;;;;;;8.30;6.35;;;20.20;91.20;;;;;;4905789;29;20038;-87
2021/08/18 13:55:11;;;;;;;7.50;6.25;;;20.20;91.00;;;;;;4901298;29;20448;-87
2021/08/18 13:57:45;;;;;;;14.85;10.40;;;20.10;91.00;;;;;;4901740;29;20043;-88
2021/08/18 14:00:25;;;;;;;11.50;10.30;;;20.10;91.00;;;;;;4901621;29;20032;-87
2021/08/18 14:02:54;;;;;;;8.27;7.05;;;20.10;91.10;;;;;;4900213;29;20108;-87
2021/08/18 14:05:20;;;;;;;7.43;5.82;;;20.10;91.10;;;;;;4903021;29;20047;-86
2021/08/18 14:07:51;;;;;;;7.82;5.68;;;20.10;90.90;;;;;;4867716;29;20128;-88
2021/08/18 14:10:27;;;;;;;7.43;5.45;;;20.10;90.90;;;;;;4898367;29;20024;-88
2021/08/18 14:13:06;;;;;;;6.53;5.68;;;20.00;90.80;;;;;;4921176;29;20122;-88
2021/08/18 14:15:35;;;;;;;5.00;4.50;;;20.00;90.50;;;;;;4925308;29;20087;-87
2021/08/18 16:32:46;;;;;;;;;;;;;;;;;;;;;
2021/08/18 19:42:38;;;;;;;;;;;;;;;;;;;;;
